sensor_id;sensor_type;location;lat;lon;timestamp;P1;durP1;ratioP1;P2;durP2;ratioP2
50988;SDS011;37008;52.210;21.112;2023-10-13T00:01:59;38.35;;;22.85;;
50988;SDS011;37008;52.210;21.112;2023-10-13T00:04:26;44.75;;;23.67;;
50988;SDS011;37008;52.210;21.112;2023-10-13T00:06:52;44.08;;;23.38;;
50988;SDS011;37008;52.210;21.112;2023-10-13T00:09:18;41.92;;;23.13;;
50988;SDS011;37008;52.210;21.112;2023-10-13T00:11:49;45.50;;;24.40;;
50988;SDS011;37008;52.210;21.112;2023-10-13T00:14:15;45.65;;;24.30;;
50988;SDS011;37008;52.210;21.112;2023-10-13T00:16:44;43.28;;;23.88;;
50988;SDS011;37008;52.210;21.112;2023-10-13T00:19:26;50.10;;;25.85;;
50988;SDS011;37008;52.210;21.112;2023-10-13T00:21:53;63.83;;;27.70;;
50988;SDS011;37008;52.210;21.112;2023-10-13T00:24:33;47.80;;;24.33;;
50988;SDS011;37008;52.210;21.112;2023-10-13T00:27:07;46.95;;;24.15;;
50988;SDS011;37008;52.210;21.112;2023-10-13T00:29:38;37.40;;;20.15;;
50988;SDS011;37008;52.210;21.112;2023-10-13T00:32:05;39.17;;;19.05;;
50988;SDS011;37008;52.210;21.112;2023-10-13T00:34:36;35.05;;;18.20;;
50988;SDS011;37008;52.210;21.112;2023-10-13T00:37:02;32.50;;;17.17;;
50988;SDS011;37008;52.210;21.112;2023-10-13T00:39:41;30.08;;;16.75;;
50988;SDS011;37008;52.210;21.112;2023-10-13T00:42:09;27.38;;;16.02;;
50988;SDS011;37008;52.210;21.112;2023-10-13T00:44:43;26.63;;;15.00;;
50988;SDS011;37008;52.210;21.112;2023-10-13T00:47:13;30.50;;;14.52;;
50988;SDS011;37008;52.210;21.112;2023-10-13T00:50:01;25.70;;;14.05;;
50988;SDS011;37008;52.210;21.112;2023-10-13T00:52:28;26.38;;;14.23;;
50988;SDS011;37008;52.210;21.112;2023-10-13T00:54:55;39.47;;;15.98;;
50988;SDS011;37008;52.210;21.112;2023-10-13T00:57:21;26.02;;;15.05;;
50988;SDS011;37008;52.210;21.112;2023-10-13T00:59:53;26.85;;;14.13;;
50988;SDS011;37008;52.210;21.112;2023-10-13T01:02:20;24.55;;;15.10;;
50988;SDS011;37008;52.210;21.112;2023-10-13T01:05:01;22.67;;;15.02;;
50988;SDS011;37008;52.210;21.112;2023-10-13T01:07:28;25.50;;;14.82;;
50988;SDS011;37008;52.210;21.112;2023-10-13T01:09:53;22.20;;;15.27;;
50988;SDS011;37008;52.210;21.112;2023-10-13T01:12:20;30.08;;;15.82;;
50988;SDS011;37008;52.210;21.112;2023-10-13T01:14:48;27.17;;;14.75;;
50988;SDS011;37008;52.210;21.112;2023-10-13T01:17:14;25.80;;;15.13;;
50988;SDS011;37008;52.210;21.112;2023-10-13T01:19:40;28.50;;;16.20;;
50988;SDS011;37008;52.210;21.112;2023-10-13T01:22:10;25.85;;;13.95;;
50988;SDS011;37008;52.210;21.112;2023-10-13T01:24:36;27.80;;;15.80;;
50988;SDS011;37008;52.210;21.112;2023-10-13T01:27:02;33.80;;;16.88;;
50988;SDS011;37008;52.210;21.112;2023-10-13T01:29:48;20.85;;;13.23;;
50988;SDS011;37008;52.210;21.112;2023-10-13T01:32:19;26.58;;;14.80;;
50988;SDS011;37008;52.210;21.112;2023-10-13T01:34:47;28.17;;;15.68;;
50988;SDS011;37008;52.210;21.112;2023-10-13T01:37:14;32.25;;;16.38;;
50988;SDS011;37008;52.210;21.112;2023-10-13T01:39:41;31.25;;;14.68;;
50988;SDS011;37008;52.210;21.112;2023-10-13T01:42:07;37.30;;;17.80;;
50988;SDS011;37008;52.210;21.112;2023-10-13T01:44:32;32.20;;;16.75;;
50988;SDS011;37008;52.210;21.112;2023-10-13T01:47:01;41.05;;;16.77;;
50988;SDS011;37008;52.210;21.112;2023-10-13T01:49:34;38.60;;;17.13;;
50988;SDS011;37008;52.210;21.112;2023-10-13T01:52:12;51.22;;;18.25;;
50988;SDS011;37008;52.210;21.112;2023-10-13T01:54:42;43.67;;;19.50;;
50988;SDS011;37008;52.210;21.112;2023-10-13T01:57:12;30.80;;;16.45;;
50988;SDS011;37008;52.210;21.112;2023-10-13T01:59:39;39.30;;;18.17;;
50988;SDS011;37008;52.210;21.112;2023-10-13T02:02:12;28.60;;;16.25;;
50988;SDS011;37008;52.210;21.112;2023-10-13T02:04:38;48.70;;;20.50;;
50988;SDS011;37008;52.210;21.112;2023-10-13T02:07:14;33.08;;;17.95;;
50988;SDS011;37008;52.210;21.112;2023-10-13T02:09:40;34.83;;;17.90;;
50988;SDS011;37008;52.210;21.112;2023-10-13T02:12:07;34.30;;;17.40;;
50988;SDS011;37008;52.210;21.112;2023-10-13T02:14:34;37.88;;;19.15;;
50988;SDS011;37008;52.210;21.112;2023-10-13T02:17:02;41.30;;;19.38;;
50988;SDS011;37008;52.210;21.112;2023-10-13T02:19:46;39.78;;;18.23;;
50988;SDS011;37008;52.210;21.112;2023-10-13T02:22:12;42.17;;;19.48;;
50988;SDS011;37008;52.210;21.112;2023-10-13T02:24:53;39.30;;;17.55;;
50988;SDS011;37008;52.210;21.112;2023-10-13T02:27:26;48.45;;;19.77;;
50988;SDS011;37008;52.210;21.112;2023-10-13T02:29:52;36.13;;;17.40;;
50988;SDS011;37008;52.210;21.112;2023-10-13T02:32:23;36.65;;;17.10;;
50988;SDS011;37008;52.210;21.112;2023-10-13T02:34:49;50.05;;;19.83;;
50988;SDS011;37008;52.210;21.112;2023-10-13T02:37:15;51.58;;;19.45;;
50988;SDS011;37008;52.210;21.112;2023-10-13T02:39:43;46.00;;;18.60;;
50988;SDS011;37008;52.210;21.112;2023-10-13T02:42:09;43.28;;;18.25;;
50988;SDS011;37008;52.210;21.112;2023-10-13T02:44:48;41.72;;;18.52;;
50988;SDS011;37008;52.210;21.112;2023-10-13T02:47:14;47.35;;;20.15;;
50988;SDS011;37008;52.210;21.112;2023-10-13T02:49:39;43.97;;;19.55;;
50988;SDS011;37008;52.210;21.112;2023-10-13T02:52:09;43.47;;;18.25;;
50988;SDS011;37008;52.210;21.112;2023-10-13T02:54:35;34.83;;;16.58;;
50988;SDS011;37008;52.210;21.112;2023-10-13T02:57:16;38.85;;;17.17;;
50988;SDS011;37008;52.210;21.112;2023-10-13T02:59:42;39.28;;;17.05;;
50988;SDS011;37008;52.210;21.112;2023-10-13T03:02:14;50.78;;;19.02;;
50988;SDS011;37008;52.210;21.112;2023-10-13T03:05:03;43.80;;;18.52;;
50988;SDS011;37008;52.210;21.112;2023-10-13T03:07:39;33.90;;;16.88;;
50988;SDS011;37008;52.210;21.112;2023-10-13T03:10:08;40.63;;;17.25;;
50988;SDS011;37008;52.210;21.112;2023-10-13T03:12:35;41.40;;;17.55;;
50988;SDS011;37008;52.210;21.112;2023-10-13T03:15:01;40.55;;;18.20;;
50988;SDS011;37008;52.210;21.112;2023-10-13T03:17:45;50.30;;;18.67;;
50988;SDS011;37008;52.210;21.112;2023-10-13T03:20:15;42.92;;;18.23;;
50988;SDS011;37008;52.210;21.112;2023-10-13T03:22:47;39.05;;;17.92;;
50988;SDS011;37008;52.210;21.112;2023-10-13T03:25:17;37.83;;;17.83;;
50988;SDS011;37008;52.210;21.112;2023-10-13T03:27:49;43.40;;;17.95;;
50988;SDS011;37008;52.210;21.112;2023-10-13T03:30:15;41.72;;;18.60;;
50988;SDS011;37008;52.210;21.112;2023-10-13T03:32:42;37.72;;;17.92;;
50988;SDS011;37008;52.210;21.112;2023-10-13T03:35:13;37.08;;;17.88;;
50988;SDS011;37008;52.210;21.112;2023-10-13T03:37:49;50.35;;;18.92;;
50988;SDS011;37008;52.210;21.112;2023-10-13T03:40:15;38.20;;;18.52;;
50988;SDS011;37008;52.210;21.112;2023-10-13T03:42:47;43.30;;;18.92;;
50988;SDS011;37008;52.210;21.112;2023-10-13T03:45:23;53.50;;;19.30;;
50988;SDS011;37008;52.210;21.112;2023-10-13T03:47:50;53.42;;;19.27;;
50988;SDS011;37008;52.210;21.112;2023-10-13T03:50:19;47.28;;;18.52;;
50988;SDS011;37008;52.210;21.112;2023-10-13T03:52:57;40.58;;;19.05;;
50988;SDS011;37008;52.210;21.112;2023-10-13T03:55:23;36.05;;;18.30;;
50988;SDS011;37008;52.210;21.112;2023-10-13T03:57:52;39.85;;;19.48;;
50988;SDS011;37008;52.210;21.112;2023-10-13T04:00:19;37.00;;;18.83;;
50988;SDS011;37008;52.210;21.112;2023-10-13T04:02:50;32.17;;;16.95;;
50988;SDS011;37008;52.210;21.112;2023-10-13T04:05:34;45.88;;;19.60;;
50988;SDS011;37008;52.210;21.112;2023-10-13T04:08:06;54.90;;;17.38;;
50988;SDS011;37008;52.210;21.112;2023-10-13T04:10:53;50.42;;;18.60;;
50988;SDS011;37008;52.210;21.112;2023-10-13T04:13:20;36.30;;;18.45;;
50988;SDS011;37008;52.210;21.112;2023-10-13T04:15:46;36.53;;;17.58;;
50988;SDS011;37008;52.210;21.112;2023-10-13T04:18:38;33.22;;;16.85;;
50988;SDS011;37008;52.210;21.112;2023-10-13T04:21:33;30.48;;;16.50;;
50988;SDS011;37008;52.210;21.112;2023-10-13T04:26:49;47.30;;;18.10;;
50988;SDS011;37008;52.210;21.112;2023-10-13T04:29:35;79.90;;;20.70;;
50988;SDS011;37008;52.210;21.112;2023-10-13T04:32:13;62.50;;;18.85;;
50988;SDS011;37008;52.210;21.112;2023-10-13T04:34:40;102.47;;;21.13;;
50988;SDS011;37008;52.210;21.112;2023-10-13T04:37:12;53.35;;;20.55;;
50988;SDS011;37008;52.210;21.112;2023-10-13T04:39:51;80.68;;;21.50;;
50988;SDS011;37008;52.210;21.112;2023-10-13T04:42:22;34.03;;;17.77;;
50988;SDS011;37008;52.210;21.112;2023-10-13T04:45:09;32.28;;;17.15;;
50988;SDS011;37008;52.210;21.112;2023-10-13T04:47:54;33.70;;;17.15;;
50988;SDS011;37008;52.210;21.112;2023-10-13T04:50:23;32.17;;;16.50;;
50988;SDS011;37008;52.210;21.112;2023-10-13T04:53:06;34.00;;;17.17;;
50988;SDS011;37008;52.210;21.112;2023-10-13T04:55:51;40.83;;;17.88;;
50988;SDS011;37008;52.210;21.112;2023-10-13T04:58:37;34.30;;;17.65;;
50988;SDS011;37008;52.210;21.112;2023-10-13T05:01:41;39.85;;;17.55;;
50988;SDS011;37008;52.210;21.112;2023-10-13T05:04:27;67.55;;;19.42;;
50988;SDS011;37008;52.210;21.112;2023-10-13T05:07:03;36.47;;;17.92;;
50988;SDS011;37008;52.210;21.112;2023-10-13T05:10:05;72.65;;;19.52;;
50988;SDS011;37008;52.210;21.112;2023-10-13T05:12:49;30.65;;;17.27;;
50988;SDS011;37008;52.210;21.112;2023-10-13T05:15:34;48.65;;;19.35;;
50988;SDS011;37008;52.210;21.112;2023-10-13T05:18:25;51.92;;;19.25;;
50988;SDS011;37008;52.210;21.112;2023-10-13T05:21:09;83.05;;;20.50;;
50988;SDS011;37008;52.210;21.112;2023-10-13T05:23:53;61.92;;;19.83;;
50988;SDS011;37008;52.210;21.112;2023-10-13T05:26:37;99.65;;;22.30;;
50988;SDS011;37008;52.210;21.112;2023-10-13T05:29:21;41.63;;;20.15;;
50988;SDS011;37008;52.210;21.112;2023-10-13T05:32:05;72.45;;;20.67;;
50988;SDS011;37008;52.210;21.112;2023-10-13T05:34:49;50.25;;;20.35;;
50988;SDS011;37008;52.210;21.112;2023-10-13T05:37:35;62.58;;;20.13;;
50988;SDS011;37008;52.210;21.112;2023-10-13T05:40:19;97.97;;;22.15;;
50988;SDS011;37008;52.210;21.112;2023-10-13T05:43:03;70.57;;;20.88;;
50988;SDS011;37008;52.210;21.112;2023-10-13T05:45:47;71.18;;;20.92;;
50988;SDS011;37008;52.210;21.112;2023-10-13T05:48:31;51.08;;;19.15;;
50988;SDS011;37008;52.210;21.112;2023-10-13T05:51:17;41.17;;;20.52;;
50988;SDS011;37008;52.210;21.112;2023-10-13T05:54:01;45.70;;;20.45;;
50988;SDS011;37008;52.210;21.112;2023-10-13T05:56:54;79.88;;;22.52;;
50988;SDS011;37008;52.210;21.112;2023-10-13T05:59:38;66.50;;;23.63;;
50988;SDS011;37008;52.210;21.112;2023-10-13T06:02:23;73.25;;;22.92;;
50988;SDS011;37008;52.210;21.112;2023-10-13T06:05:11;79.55;;;23.35;;
50988;SDS011;37008;52.210;21.112;2023-10-13T06:07:56;78.10;;;23.85;;
50988;SDS011;37008;52.210;21.112;2023-10-13T06:10:41;80.82;;;24.55;;
50988;SDS011;37008;52.210;21.112;2023-10-13T06:13:27;97.50;;;26.17;;
50988;SDS011;37008;52.210;21.112;2023-10-13T06:16:11;73.07;;;25.58;;
50988;SDS011;37008;52.210;21.112;2023-10-13T06:21:42;64.93;;;27.13;;
50988;SDS011;37008;52.210;21.112;2023-10-13T06:24:27;61.05;;;26.63;;
50988;SDS011;37008;52.210;21.112;2023-10-13T06:27:11;65.88;;;30.27;;
50988;SDS011;37008;52.210;21.112;2023-10-13T06:29:55;57.70;;;29.40;;
50988;SDS011;37008;52.210;21.112;2023-10-13T06:32:21;60.97;;;31.80;;
50988;SDS011;37008;52.210;21.112;2023-10-13T06:34:54;67.07;;;34.20;;
50988;SDS011;37008;52.210;21.112;2023-10-13T06:37:23;64.70;;;33.45;;
50988;SDS011;37008;52.210;21.112;2023-10-13T06:40:00;68.22;;;33.95;;
50988;SDS011;37008;52.210;21.112;2023-10-13T06:42:47;59.28;;;32.97;;
50988;SDS011;37008;52.210;21.112;2023-10-13T06:45:15;53.20;;;31.05;;
50988;SDS011;37008;52.210;21.112;2023-10-13T06:47:45;55.78;;;31.00;;
50988;SDS011;37008;52.210;21.112;2023-10-13T06:50:14;57.08;;;32.25;;
50988;SDS011;37008;52.210;21.112;2023-10-13T06:52:41;60.10;;;32.08;;
50988;SDS011;37008;52.210;21.112;2023-10-13T06:55:08;61.65;;;32.08;;
50988;SDS011;37008;52.210;21.112;2023-10-13T06:57:42;62.38;;;32.25;;
50988;SDS011;37008;52.210;21.112;2023-10-13T07:00:12;57.97;;;32.58;;
50988;SDS011;37008;52.210;21.112;2023-10-13T07:02:50;63.42;;;32.25;;
50988;SDS011;37008;52.210;21.112;2023-10-13T07:05:17;60.60;;;31.13;;
50988;SDS011;37008;52.210;21.112;2023-10-13T07:07:44;63.67;;;30.05;;
50988;SDS011;37008;52.210;21.112;2023-10-13T07:10:10;55.45;;;31.45;;
50988;SDS011;37008;52.210;21.112;2023-10-13T07:12:39;51.83;;;30.75;;
50988;SDS011;37008;52.210;21.112;2023-10-13T07:15:14;49.08;;;30.70;;
50988;SDS011;37008;52.210;21.112;2023-10-13T07:17:43;54.40;;;30.70;;
50988;SDS011;37008;52.210;21.112;2023-10-13T07:20:10;46.13;;;29.10;;
50988;SDS011;37008;52.210;21.112;2023-10-13T07:23:02;49.22;;;29.30;;
50988;SDS011;37008;52.210;21.112;2023-10-13T07:25:34;42.72;;;27.15;;
50988;SDS011;37008;52.210;21.112;2023-10-13T07:28:02;48.30;;;27.10;;
50988;SDS011;37008;52.210;21.112;2023-10-13T07:30:29;43.58;;;27.25;;
50988;SDS011;37008;52.210;21.112;2023-10-13T07:32:56;54.63;;;28.38;;
50988;SDS011;37008;52.210;21.112;2023-10-13T07:35:25;56.05;;;26.67;;
50988;SDS011;37008;52.210;21.112;2023-10-13T07:37:51;45.17;;;26.58;;
50988;SDS011;37008;52.210;21.112;2023-10-13T07:40:21;45.17;;;26.13;;
50988;SDS011;37008;52.210;21.112;2023-10-13T07:43:04;45.75;;;26.02;;
50988;SDS011;37008;52.210;21.112;2023-10-13T07:45:35;43.35;;;26.02;;
50988;SDS011;37008;52.210;21.112;2023-10-13T07:48:03;49.50;;;27.33;;
50988;SDS011;37008;52.210;21.112;2023-10-13T07:50:38;39.28;;;26.05;;
50988;SDS011;37008;52.210;21.112;2023-10-13T07:53:04;52.55;;;26.63;;
50988;SDS011;37008;52.210;21.112;2023-10-13T07:55:50;40.55;;;25.02;;
50988;SDS011;37008;52.210;21.112;2023-10-13T07:58:21;38.58;;;25.48;;
50988;SDS011;37008;52.210;21.112;2023-10-13T08:00:52;43.90;;;25.83;;
50988;SDS011;37008;52.210;21.112;2023-10-13T08:03:34;41.10;;;24.95;;
50988;SDS011;37008;52.210;21.112;2023-10-13T08:06:08;31.45;;;22.35;;
50988;SDS011;37008;52.210;21.112;2023-10-13T08:11:53;41.00;;;20.65;;
50988;SDS011;37008;52.210;21.112;2023-10-13T08:14:19;30.02;;;17.65;;
50988;SDS011;37008;52.210;21.112;2023-10-13T08:16:58;26.98;;;16.75;;
50988;SDS011;37008;52.210;21.112;2023-10-13T08:19:31;23.58;;;14.20;;
50988;SDS011;37008;52.210;21.112;2023-10-13T08:22:14;23.75;;;13.20;;
50988;SDS011;37008;52.210;21.112;2023-10-13T08:24:46;22.77;;;13.23;;
50988;SDS011;37008;52.210;21.112;2023-10-13T08:27:13;24.15;;;12.68;;
50988;SDS011;37008;52.210;21.112;2023-10-13T08:29:39;24.27;;;12.10;;
50988;SDS011;37008;52.210;21.112;2023-10-13T08:32:21;21.88;;;10.60;;
50988;SDS011;37008;52.210;21.112;2023-10-13T08:34:56;20.40;;;11.13;;
50988;SDS011;37008;52.210;21.112;2023-10-13T08:37:23;18.85;;;9.52;;
50988;SDS011;37008;52.210;21.112;2023-10-13T08:39:53;24.63;;;9.02;;
50988;SDS011;37008;52.210;21.112;2023-10-13T08:42:31;27.80;;;9.20;;
50988;SDS011;37008;52.210;21.112;2023-10-13T08:45:07;19.83;;;9.02;;
50988;SDS011;37008;52.210;21.112;2023-10-13T08:47:53;22.05;;;10.00;;
50988;SDS011;37008;52.210;21.112;2023-10-13T08:50:33;17.98;;;8.68;;
50988;SDS011;37008;52.210;21.112;2023-10-13T08:56:11;23.80;;;8.68;;
50988;SDS011;37008;52.210;21.112;2023-10-13T08:58:41;19.25;;;9.38;;
50988;SDS011;37008;52.210;21.112;2023-10-13T09:01:30;22.65;;;9.60;;
50988;SDS011;37008;52.210;21.112;2023-10-13T09:04:11;24.10;;;10.45;;
50988;SDS011;37008;52.210;21.112;2023-10-13T09:06:44;20.60;;;10.80;;
50988;SDS011;37008;52.210;21.112;2023-10-13T09:09:13;15.48;;;9.70;;
50988;SDS011;37008;52.210;21.112;2023-10-13T09:12:14;24.00;;;10.10;;
50988;SDS011;37008;52.210;21.112;2023-10-13T09:15:10;22.35;;;10.07;;
50988;SDS011;37008;52.210;21.112;2023-10-13T09:17:43;20.83;;;10.75;;
50988;SDS011;37008;52.210;21.112;2023-10-13T09:20:33;22.00;;;9.93;;
50988;SDS011;37008;52.210;21.112;2023-10-13T09:23:10;20.88;;;10.02;;
50988;SDS011;37008;52.210;21.112;2023-10-13T09:26:05;20.80;;;9.30;;
50988;SDS011;37008;52.210;21.112;2023-10-13T09:28:37;25.40;;;9.73;;
50988;SDS011;37008;52.210;21.112;2023-10-13T09:31:03;18.35;;;9.60;;
50988;SDS011;37008;52.210;21.112;2023-10-13T09:33:32;19.13;;;10.10;;
50988;SDS011;37008;52.210;21.112;2023-10-13T09:36:01;20.77;;;10.15;;
50988;SDS011;37008;52.210;21.112;2023-10-13T09:38:32;28.45;;;10.52;;
50988;SDS011;37008;52.210;21.112;2023-10-13T09:41:05;21.77;;;10.25;;
50988;SDS011;37008;52.210;21.112;2023-10-13T09:43:44;22.25;;;10.80;;
50988;SDS011;37008;52.210;21.112;2023-10-13T09:46:11;27.08;;;10.65;;
50988;SDS011;37008;52.210;21.112;2023-10-13T09:48:45;23.15;;;10.02;;
50988;SDS011;37008;52.210;21.112;2023-10-13T09:51:29;19.20;;;9.60;;
50988;SDS011;37008;52.210;21.112;2023-10-13T09:53:58;27.80;;;10.15;;
50988;SDS011;37008;52.210;21.112;2023-10-13T09:57:19;22.23;;;9.35;;
50988;SDS011;37008;52.210;21.112;2023-10-13T09:59:23;21.25;;;9.25;;
50988;SDS011;37008;52.210;21.112;2023-10-13T10:02:00;22.00;;;9.93;;
50988;SDS011;37008;52.210;21.112;2023-10-13T10:04:34;18.40;;;9.32;;
50988;SDS011;37008;52.210;21.112;2023-10-13T10:07:23;17.60;;;8.88;;
50988;SDS011;37008;52.210;21.112;2023-10-13T10:09:56;20.85;;;8.25;;
50988;SDS011;37008;52.210;21.112;2023-10-13T10:15:32;19.42;;;8.60;;
50988;SDS011;37008;52.210;21.112;2023-10-13T10:18:18;18.45;;;8.43;;
50988;SDS011;37008;52.210;21.112;2023-10-13T10:20:47;17.00;;;7.78;;
50988;SDS011;37008;52.210;21.112;2023-10-13T10:23:26;17.75;;;8.38;;
50988;SDS011;37008;52.210;21.112;2023-10-13T10:25:55;16.38;;;8.48;;
50988;SDS011;37008;52.210;21.112;2023-10-13T10:28:36;17.05;;;8.10;;
50988;SDS011;37008;52.210;21.112;2023-10-13T10:31:09;18.40;;;8.40;;
50988;SDS011;37008;52.210;21.112;2023-10-13T10:33:45;21.17;;;8.60;;
50988;SDS011;37008;52.210;21.112;2023-10-13T10:36:22;17.00;;;8.00;;
50988;SDS011;37008;52.210;21.112;2023-10-13T10:38:55;14.00;;;7.45;;
50988;SDS011;37008;52.210;21.112;2023-10-13T10:41:28;17.27;;;7.63;;
50988;SDS011;37008;52.210;21.112;2023-10-13T10:44:24;15.73;;;7.88;;
50988;SDS011;37008;52.210;21.112;2023-10-13T10:47:12;16.05;;;8.25;;
50988;SDS011;37008;52.210;21.112;2023-10-13T10:49:55;15.07;;;7.78;;
50988;SDS011;37008;52.210;21.112;2023-10-13T10:52:44;19.40;;;8.55;;
50988;SDS011;37008;52.210;21.112;2023-10-13T10:55:11;16.48;;;8.48;;
50988;SDS011;37008;52.210;21.112;2023-10-13T10:57:40;20.95;;;8.43;;
50988;SDS011;37008;52.210;21.112;2023-10-13T11:00:18;19.05;;;8.73;;
50988;SDS011;37008;52.210;21.112;2023-10-13T11:02:55;15.30;;;8.35;;
50988;SDS011;37008;52.210;21.112;2023-10-13T11:05:21;15.50;;;8.35;;
50988;SDS011;37008;52.210;21.112;2023-10-13T11:07:49;17.15;;;7.60;;
50988;SDS011;37008;52.210;21.112;2023-10-13T11:10:16;17.63;;;7.97;;
50988;SDS011;37008;52.210;21.112;2023-10-13T11:12:56;19.52;;;7.93;;
50988;SDS011;37008;52.210;21.112;2023-10-13T11:15:46;18.42;;;8.32;;
50988;SDS011;37008;52.210;21.112;2023-10-13T11:18:13;19.75;;;8.02;;
50988;SDS011;37008;52.210;21.112;2023-10-13T11:20:48;22.05;;;8.90;;
50988;SDS011;37008;52.210;21.112;2023-10-13T11:23:20;15.30;;;7.63;;
50988;SDS011;37008;52.210;21.112;2023-10-13T11:25:57;16.45;;;8.77;;
50988;SDS011;37008;52.210;21.112;2023-10-13T11:28:24;17.02;;;8.95;;
50988;SDS011;37008;52.210;21.112;2023-10-13T11:30:53;17.05;;;7.88;;
50988;SDS011;37008;52.210;21.112;2023-10-13T11:33:23;16.52;;;8.18;;
50988;SDS011;37008;52.210;21.112;2023-10-13T11:35:50;17.27;;;7.88;;
50988;SDS011;37008;52.210;21.112;2023-10-13T11:38:19;14.38;;;7.35;;
50988;SDS011;37008;52.210;21.112;2023-10-13T11:43:33;14.13;;;7.18;;
50988;SDS011;37008;52.210;21.112;2023-10-13T11:46:11;15.85;;;7.95;;
50988;SDS011;37008;52.210;21.112;2023-10-13T11:48:39;15.70;;;7.70;;
50988;SDS011;37008;52.210;21.112;2023-10-13T11:51:08;18.63;;;7.13;;
50988;SDS011;37008;52.210;21.112;2023-10-13T11:53:45;15.18;;;7.40;;
50988;SDS011;37008;52.210;21.112;2023-10-13T11:56:17;12.95;;;7.15;;
50988;SDS011;37008;52.210;21.112;2023-10-13T11:58:45;15.90;;;7.72;;
50988;SDS011;37008;52.210;21.112;2023-10-13T12:01:11;15.50;;;8.10;;
50988;SDS011;37008;52.210;21.112;2023-10-13T12:03:43;16.48;;;8.25;;
50988;SDS011;37008;52.210;21.112;2023-10-13T12:06:29;15.48;;;7.57;;
50988;SDS011;37008;52.210;21.112;2023-10-13T12:11:41;16.58;;;7.65;;
50988;SDS011;37008;52.210;21.112;2023-10-13T12:14:07;21.80;;;8.23;;
50988;SDS011;37008;52.210;21.112;2023-10-13T12:16:56;15.75;;;7.65;;
50988;SDS011;37008;52.210;21.112;2023-10-13T12:19:28;21.10;;;7.68;;
50988;SDS011;37008;52.210;21.112;2023-10-13T12:21:54;16.52;;;7.45;;
50988;SDS011;37008;52.210;21.112;2023-10-13T12:24:24;17.92;;;7.78;;
50988;SDS011;37008;52.210;21.112;2023-10-13T12:27:04;15.07;;;7.20;;
50988;SDS011;37008;52.210;21.112;2023-10-13T12:29:51;24.10;;;8.27;;
50988;SDS011;37008;52.210;21.112;2023-10-13T12:32:20;15.07;;;8.05;;
50988;SDS011;37008;52.210;21.112;2023-10-13T12:34:48;16.85;;;7.68;;
50988;SDS011;37008;52.210;21.112;2023-10-13T12:37:30;14.38;;;8.05;;
50988;SDS011;37008;52.210;21.112;2023-10-13T12:40:09;16.50;;;7.35;;
50988;SDS011;37008;52.210;21.112;2023-10-13T12:42:57;17.98;;;8.10;;
50988;SDS011;37008;52.210;21.112;2023-10-13T12:45:42;20.40;;;9.02;;
50988;SDS011;37008;52.210;21.112;2023-10-13T12:48:27;16.05;;;7.70;;
50988;SDS011;37008;52.210;21.112;2023-10-13T12:51:11;17.38;;;8.65;;
50988;SDS011;37008;52.210;21.112;2023-10-13T12:53:49;17.10;;;8.23;;
50988;SDS011;37008;52.210;21.112;2023-10-13T12:56:16;21.48;;;8.60;;
50988;SDS011;37008;52.210;21.112;2023-10-13T12:58:42;16.55;;;8.00;;
50988;SDS011;37008;52.210;21.112;2023-10-13T13:01:26;17.73;;;8.40;;
50988;SDS011;37008;52.210;21.112;2023-10-13T13:03:58;19.30;;;7.65;;
50988;SDS011;37008;52.210;21.112;2023-10-13T13:06:24;14.57;;;7.90;;
50988;SDS011;37008;52.210;21.112;2023-10-13T13:08:54;17.40;;;8.45;;
50988;SDS011;37008;52.210;21.112;2023-10-13T13:11:24;17.15;;;8.23;;
50988;SDS011;37008;52.210;21.112;2023-10-13T13:13:53;19.00;;;8.70;;
50988;SDS011;37008;52.210;21.112;2023-10-13T13:16:19;16.15;;;8.40;;
50988;SDS011;37008;52.210;21.112;2023-10-13T13:18:51;16.17;;;8.45;;
50988;SDS011;37008;52.210;21.112;2023-10-13T13:21:19;18.58;;;9.00;;
50988;SDS011;37008;52.210;21.112;2023-10-13T13:23:48;23.55;;;8.45;;
50988;SDS011;37008;52.210;21.112;2023-10-13T13:26:14;18.55;;;8.57;;
50988;SDS011;37008;52.210;21.112;2023-10-13T13:28:43;19.60;;;9.15;;
50988;SDS011;37008;52.210;21.112;2023-10-13T13:31:09;15.98;;;8.48;;
50988;SDS011;37008;52.210;21.112;2023-10-13T13:33:37;12.65;;;7.78;;
50988;SDS011;37008;52.210;21.112;2023-10-13T13:36:06;18.95;;;8.27;;
50988;SDS011;37008;52.210;21.112;2023-10-13T13:38:32;19.55;;;8.93;;
50988;SDS011;37008;52.210;21.112;2023-10-13T13:40:58;20.10;;;9.07;;
50988;SDS011;37008;52.210;21.112;2023-10-13T13:43:27;14.90;;;8.73;;
50988;SDS011;37008;52.210;21.112;2023-10-13T13:46:28;22.60;;;9.05;;
50988;SDS011;37008;52.210;21.112;2023-10-13T13:48:57;20.08;;;9.68;;
50988;SDS011;37008;52.210;21.112;2023-10-13T13:51:25;16.10;;;8.50;;
50988;SDS011;37008;52.210;21.112;2023-10-13T13:53:57;15.95;;;9.25;;
50988;SDS011;37008;52.210;21.112;2023-10-13T13:56:23;19.38;;;9.65;;
50988;SDS011;37008;52.210;21.112;2023-10-13T13:58:51;21.88;;;9.43;;
50988;SDS011;37008;52.210;21.112;2023-10-13T14:01:18;17.25;;;9.25;;
50988;SDS011;37008;52.210;21.112;2023-10-13T14:03:48;24.50;;;9.27;;
50988;SDS011;37008;52.210;21.112;2023-10-13T14:06:18;28.67;;;11.20;;
50988;SDS011;37008;52.210;21.112;2023-10-13T14:08:49;18.70;;;8.95;;
50988;SDS011;37008;52.210;21.112;2023-10-13T14:11:22;17.73;;;8.80;;
50988;SDS011;37008;52.210;21.112;2023-10-13T14:14:04;16.60;;;8.95;;
50988;SDS011;37008;52.210;21.112;2023-10-13T14:16:36;19.55;;;9.65;;
50988;SDS011;37008;52.210;21.112;2023-10-13T14:19:02;16.83;;;8.80;;
50988;SDS011;37008;52.210;21.112;2023-10-13T14:21:33;17.88;;;8.95;;
50988;SDS011;37008;52.210;21.112;2023-10-13T14:24:00;15.02;;;9.38;;
50988;SDS011;37008;52.210;21.112;2023-10-13T14:26:26;16.40;;;9.52;;
50988;SDS011;37008;52.210;21.112;2023-10-13T14:28:52;18.77;;;9.43;;
50988;SDS011;37008;52.210;21.112;2023-10-13T14:31:28;17.65;;;9.57;;
50988;SDS011;37008;52.210;21.112;2023-10-13T14:33:55;19.58;;;9.18;;
50988;SDS011;37008;52.210;21.112;2023-10-13T14:36:21;18.45;;;11.18;;
50988;SDS011;37008;52.210;21.112;2023-10-13T14:38:47;23.73;;;10.80;;
50988;SDS011;37008;52.210;21.112;2023-10-13T14:41:31;20.00;;;10.45;;
50988;SDS011;37008;52.210;21.112;2023-10-13T14:43:57;19.38;;;10.43;;
50988;SDS011;37008;52.210;21.112;2023-10-13T14:46:32;19.35;;;10.55;;
50988;SDS011;37008;52.210;21.112;2023-10-13T14:49:04;19.63;;;10.43;;
50988;SDS011;37008;52.210;21.112;2023-10-13T14:51:31;23.65;;;12.23;;
50988;SDS011;37008;52.210;21.112;2023-10-13T14:53:57;24.30;;;13.32;;
50988;SDS011;37008;52.210;21.112;2023-10-13T14:56:24;27.20;;;14.15;;
50988;SDS011;37008;52.210;21.112;2023-10-13T14:58:51;22.88;;;12.82;;
50988;SDS011;37008;52.210;21.112;2023-10-13T15:01:21;20.20;;;12.02;;
50988;SDS011;37008;52.210;21.112;2023-10-13T15:03:50;24.95;;;12.02;;
50988;SDS011;37008;52.210;21.112;2023-10-13T15:06:24;19.73;;;11.15;;
50988;SDS011;37008;52.210;21.112;2023-10-13T15:08:51;20.67;;;11.20;;
50988;SDS011;37008;52.210;21.112;2023-10-13T15:11:20;20.45;;;10.70;;
50988;SDS011;37008;52.210;21.112;2023-10-13T15:13:51;23.42;;;11.23;;